Time;durP1;ratioP1;P1;durP2;ratioP2;P2;SDS_P1;SDS_P2;PMS_P1;PMS_P2;Temp;Humidity;BMP_temperature;BMP_pressure;BME280_temperature;BME280_humidity;BME280_pressure;Samples;Min_cycle;Max_cycle;Signal;HPM_P1;HPM_P2
2022/01/09 00:01:14;;;;;;;73.67;33.47;;;;;;;1.10;67.10;99136.19;4956565;28;96486;-93
2022/01/09 00:03:43;;;;;;;76.90;33.50;;;;;;;1.36;66.47;99148.72;4955612;28;96463;-93
2022/01/09 00:06:09;;;;;;;76.93;35.17;;;;;;;0.85;66.41;99065.94;4930282;28;100101;-93
2022/01/09 00:08:34;;;;;;;66.63;32.17;;;;;;;1.23;66.56;99120.53;4923971;28;99444;-93
2022/01/09 00:11:00;;;;;;;74.33;34.73;;;;;;;1.43;66.65;99159.00;4948428;28;96830;-93
2022/01/09 00:13:26;;;;;;;78.60;33.67;;;;;;;1.41;65.97;99143.50;4965839;28;96945;-94
2022/01/09 00:15:51;;;;;;;68.47;31.97;;;;;;;0.71;66.76;99051.50;4955959;28;100270;-94
2022/01/09 00:18:20;;;;;;;69.73;31.77;;;;;;;0.95;67.13;99105.41;4956364;28;101133;-93
2022/01/09 00:20:49;;;;;;;64.90;30.00;;;;;;;0.87;67.23;99084.88;4956486;28;96651;-93
2022/01/09 00:23:17;;;;;;;71.27;31.20;;;;;;;1.06;66.61;99084.59;4957034;28;96889;-93
2022/01/09 00:25:42;;;;;;;68.47;31.33;;;;;;;0.97;66.69;99071.81;4956066;28;98513;-92
2022/01/09 00:28:13;;;;;;;65.73;29.10;;;;;;;1.02;66.88;99077.72;4956299;28;101211;-93
2022/01/09 00:30:41;;;;;;;68.93;30.30;;;;;;;0.71;66.94;99028.25;4970464;28;97672;-93
2022/01/09 00:33:07;;;;;;;69.07;30.77;;;;;;;0.86;67.23;99059.88;4978418;28;97377;-93
2022/01/09 00:35:34;;;;;;;61.03;29.30;;;;;;;0.93;66.86;99064.94;4962739;28;100822;-93
2022/01/09 00:37:59;;;;;;;63.43;28.93;;;;;;;0.48;66.56;99005.34;4978215;28;99911;-93
2022/01/09 00:40:25;;;;;;;63.87;29.50;;;;;;;0.51;66.95;99011.31;4994657;28;97208;-93
2022/01/09 00:42:53;;;;;;;65.17;30.07;;;;;;;1.07;66.85;99084.53;4996187;28;96915;-93
2022/01/09 00:45:19;;;;;;;68.60;28.63;;;;;;;1.09;66.28;99094.88;4962299;28;102310;-93
2022/01/09 00:47:45;;;;;;;61.93;29.50;;;;;;;0.92;66.35;99056.34;4978702;28;101508;-93
2022/01/09 00:50:12;;;;;;;59.70;27.80;;;;;;;1.15;66.53;99093.94;4978190;28;96642;-93
2022/01/09 00:52:40;;;;;;;62.20;29.30;;;;;;;0.71;66.60;99015.34;4978164;28;96736;-93
2022/01/09 00:55:06;;;;;;;57.93;27.97;;;;;;;0.96;65.93;99058.03;4978166;28;101232;-93
2022/01/09 00:57:35;;;;;;;57.53;28.13;;;;;;;0.57;66.62;98982.81;4978741;28;100190;-93
2022/01/09 01:00:01;;;;;;;64.37;28.60;;;;;;;1.08;66.18;99075.94;4979376;28;96852;-93
2022/01/09 01:02:26;;;;;;;53.27;27.23;;;;;;;1.06;66.59;99069.06;4995328;28;96865;-93
2022/01/09 01:04:54;;;;;;;55.40;26.93;;;;;;;0.42;66.45;98973.56;4978134;28;100154;-93
2022/01/09 01:07:20;;;;;;;54.13;26.80;;;;;;;0.64;66.42;98993.91;4978769;28;100299;-93
2022/01/09 01:09:46;;;;;;;53.87;25.93;;;;;;;0.37;66.54;98967.63;4962227;28;97966;-93
2022/01/09 01:12:12;;;;;;;57.23;26.03;;;;;;;0.88;66.65;99034.88;4971610;28;97352;-93
2022/01/09 01:14:40;;;;;;;52.07;26.10;;;;;;;0.84;66.53;98996.19;4954864;28;101649;-93
2022/01/09 01:17:06;;;;;;;56.90;26.80;;;;;;;0.56;66.55;98950.13;4955174;28;100257;-93
2022/01/09 01:19:32;;;;;;;59.00;27.57;;;;;;;0.61;66.43;98978.47;4955519;28;96676;-93
2022/01/09 01:21:58;;;;;;;56.73;28.17;;;;;;;0.70;66.48;98991.25;4939133;28;96819;-93
2022/01/09 01:24:24;;;;;;;61.93;28.33;;;;;;;0.39;66.00;98926.31;4958113;28;100664;-93
2022/01/09 01:26:50;;;;;;;58.50;28.47;;;;;;;0.32;66.96;98927.25;4942095;28;99537;-93
2022/01/09 01:29:17;;;;;;;53.07;26.20;;;;;;;0.65;67.24;98996.47;4958946;28;96680;-93
2022/01/09 01:31:43;;;;;;;57.77;28.43;;;;;;;0.42;66.91;98955.50;4943161;28;96650;-93
2022/01/09 01:34:11;;;;;;;59.27;29.23;;;;;;;0.43;66.97;98946.88;4941705;28;101557;-93
2022/01/09 01:36:38;;;;;;;56.90;27.60;;;;;;;0.34;67.41;98948.75;4942938;28;100409;-93
2022/01/09 01:39:04;;;;;;;56.57;27.30;;;;;;;0.40;67.48;98971.88;4974628;28;96892;-93
2022/01/09 01:41:32;;;;;;;55.00;27.83;;;;;;;0.36;67.41;98962.50;4962313;28;96968;-93
2022/01/09 01:44:00;;;;;;;58.87;28.57;;;;;;;0.34;67.37;98938.41;4941223;28;99884;-94
2022/01/09 01:46:26;;;;;;;57.77;26.90;;;;;;;-0.07;67.40;98878.78;4959190;28;98206;-93
2022/01/09 01:48:52;;;;;;;65.00;29.07;;;;;;;0.30;67.15;98926.44;4959862;28;96653;-93
2022/01/09 01:51:20;;;;;;;64.80;30.13;;;;;;;0.03;67.00;98876.06;4975127;28;96977;-93
2022/01/09 01:53:46;;;;;;;56.37;26.77;;;;;;;0.33;67.00;98909.16;4958374;28;100658;-93
2022/01/09 01:56:19;;;;;;;61.00;28.53;;;;;;;0.51;66.32;98953.66;4958193;28;101509;-93
2022/01/09 01:58:47;;;;;;;58.63;27.43;;;;;;;0.42;66.72;98942.59;4983929;28;96677;-93
2022/01/09 02:01:15;;;;;;;57.87;26.90;;;;;;;0.68;66.97;98967.16;4943309;28;96685;-93
2022/01/09 02:03:41;;;;;;;56.13;27.50;;;;;;;0.64;66.81;98976.69;4937579;28;101373;-93
2022/01/09 02:06:07;;;;;;;57.90;27.80;;;;;;;0.46;67.19;98945.97;4945971;28;100391;-93
2022/01/09 02:08:38;;;;;;;53.90;24.50;;;;;;;0.29;67.39;98915.28;4958276;28;96759;-94
2022/01/09 02:11:04;;;;;;;50.80;26.27;;;;;;;0.25;67.60;98923.91;4957139;28;96658;-94
2022/01/09 02:13:30;;;;;;;52.77;25.80;;;;;;;-0.17;67.48;98856.56;4958484;28;100213;-94
2022/01/09 02:15:58;;;;;;;51.23;24.73;;;;;;;-0.07;67.51;98871.03;4957758;28;100687;-94
2022/01/09 02:18:24;;;;;;;48.57;24.03;;;;;;;0.51;67.69;98953.66;4964474;28;96930;-93
2022/01/09 02:20:53;;;;;;;50.57;23.70;;;;;;;-0.01;67.42;98859.78;4958542;28;96714;-93
2022/01/09 02:23:19;;;;;;;46.97;23.10;;;;;;;0.30;67.45;98909.22;4957319;28;101205;-93
2022/01/09 02:25:46;;;;;;;46.97;23.93;;;;;;;0.28;67.62;98899.78;4974216;28;98287;-92
2022/01/09 02:28:14;;;;;;;45.40;24.00;;;;;;;-0.11;67.62;98835.00;4957035;28;96646;-93
2022/01/09 02:30:41;;;;;;;54.30;26.60;;;;;;;0.24;67.93;98904.16;4957278;28;96762;-94
2022/01/09 02:33:14;;;;;;;51.40;24.37;;;;;;;-0.39;68.44;98816.47;4953421;28;100568;-93
2022/01/09 02:35:43;;;;;;;47.97;24.10;;;;;;;-0.02;68.91;98889.03;4970027;28;101665;-93
2022/01/09 02:38:09;;;;;;;49.63;25.70;;;;;;;0.03;68.67;98888.97;4954251;28;96603;-93
2022/01/09 02:40:34;;;;;;;48.40;24.20;;;;;;;-0.40;69.28;98838.84;4938005;28;97377;-93
2022/01/09 02:43:00;;;;;;;56.90;26.37;;;;;;;0.12;68.59;98912.06;4937771;28;101126;-93
2022/01/09 02:45:29;;;;;;;47.67;24.23;;;;;;;-0.48;68.48;98795.09;4948265;28;100956;-93
2022/01/09 02:48:00;;;;;;;54.17;25.37;;;;;;;-0.07;68.71;98855.56;4938200;28;97087;-91
2022/01/09 02:50:36;;;;;;;55.50;24.47;;;;;;;-0.23;69.27;98841.19;4955435;28;96740;-92
2022/01/09 02:53:16;;;;;;;49.23;24.57;;;;;;;-0.13;69.42;98850.47;4938139;28;100896;-91
2022/01/09 02:55:43;;;;;;;51.80;24.83;;;;;;;-0.05;68.95;98843.50;4939143;28;101456;-91
2022/01/09 02:58:11;;;;;;;51.50;24.63;;;;;;;-0.07;69.04;98845.25;4949021;28;97184;-91
2022/01/09 03:00:42;;;;;;;48.77;23.83;;;;;;;-0.11;69.15;98842.75;4957504;28;97100;-91
2022/01/09 03:03:08;;;;;;;53.60;25.17;;;;;;;-0.58;69.34;98772.03;4941081;28;100232;-91
2022/01/09 03:05:36;;;;;;;56.23;25.40;;;;;;;-0.15;69.20;98839.31;4958144;28;98373;-93
2022/01/09 03:08:04;;;;;;;52.50;25.60;;;;;;;-0.44;69.10;98764.13;4958023;28;96668;-91
2022/01/09 03:10:30;;;;;;;53.70;23.77;;;;;;;0.12;69.56;98861.31;4960001;28;96570;-93
2022/01/09 03:12:57;;;;;;;52.07;24.73;;;;;;;-0.07;68.47;98816.00;4960215;28;100142;-93
2022/01/09 03:15:24;;;;;;;49.50;23.77;;;;;;;-0.15;69.25;98802.38;4938403;28;102314;-91
2022/01/09 03:17:50;;;;;;;52.60;24.40;;;;;;;-0.29;68.76;98782.81;4921716;28;96484;-93
2022/01/09 03:20:18;;;;;;;54.60;25.50;;;;;;;-0.34;68.58;98763.97;4953708;28;96622;-92
2022/01/09 03:22:45;;;;;;;44.00;22.70;;;;;;;-0.23;68.08;98763.81;4920923;28;101347;-91
2022/01/09 03:25:10;;;;;;;49.40;23.60;;;;;;;-0.22;68.23;98773.25;4953334;28;101613;-92
2022/01/09 03:27:38;;;;;;;49.70;24.07;;;;;;;-0.29;67.65;98748.41;4921605;28;96656;-91
2022/01/09 03:30:07;;;;;;;45.43;22.77;;;;;;;0.12;68.11;98821.75;4925137;28;96924;-91
2022/01/09 03:32:34;;;;;;;51.20;23.90;;;;;;;-0.02;68.31;98803.91;4975899;28;97635;-90
2022/01/09 03:35:00;;;;;;;46.83;22.80;;;;;;;0.27;68.04;98854.22;4958647;28;101261;-91
2022/01/09 03:37:25;;;;;;;50.20;25.33;;;;;;;0.18;68.46;98821.66;4957705;28;96584;-93
2022/01/09 03:39:54;;;;;;;49.33;23.23;;;;;;;0.24;68.40;98843.94;4973767;28;96785;-92
2022/01/09 03:42:20;;;;;;;49.53;23.97;;;;;;;0.25;68.26;98845.63;4970401;28;100198;-92
2022/01/09 03:44:48;;;;;;;48.23;24.47;;;;;;;-0.07;68.45;98803.13;4953326;28;99920;-92
2022/01/09 03:47:19;;;;;;;47.63;22.00;;;;;;;-0.04;68.72;98819.38;4955098;28;96688;-91
2022/01/09 03:49:44;;;;;;;50.93;22.30;;;;;;;0.08;67.96;98820.09;4956809;28;96904;-92
2022/01/09 03:52:10;;;;;;;42.77;22.23;;;;;;;-0.17;68.13;98783.50;4956562;28;99818;-92
2022/01/09 03:54:38;;;;;;;44.90;22.43;;;;;;;0.00;67.72;98817.63;4940339;28;101155;-92
2022/01/09 03:57:04;;;;;;;46.47;22.00;;;;;;;-0.21;67.96;98787.84;4940364;28;97347;-92
2022/01/09 03:59:29;;;;;;;46.00;21.63;;;;;;;-0.17;68.21;98789.50;4973541;28;97192;-92
2022/01/09 04:01:58;;;;;;;41.60;21.97;;;;;;;-0.37;68.01;98748.53;4924086;28;100578;-92
2022/01/09 04:04:23;;;;;;;39.63;20.57;;;;;;;0.12;67.98;98824.34;4939774;28;101434;-92
2022/01/09 04:06:50;;;;;;;43.37;20.53;;;;;;;-0.01;67.98;98808.19;4972666;28;96573;-92
2022/01/09 04:09:29;;;;;;;46.10;22.60;;;;;;;-0.52;67.76;98743.63;4956852;28;97028;-92
2022/01/09 04:12:03;;;;;;;38.40;20.90;;;;;;;-0.34;68.62;98763.13;4954579;28;101560;-92
2022/01/09 04:14:29;;;;;;;43.85;20.98;;;;;;;-0.25;68.50;98793.94;4960595;28;101549;-92
2022/01/09 04:16:59;;;;;;;57.93;21.33;;;;;;;-0.60;68.03;98743.72;4960249;28;96719;-92
2022/01/09 04:19:25;;;;;;;42.43;20.30;;;;;;;-0.36;68.58;98801.81;4943509;28;96732;-91
2022/01/09 04:21:50;;;;;;;40.57;19.60;;;;;;;-0.52;68.43;98759.94;4976027;28;98244;-91
2022/01/09 04:24:16;;;;;;;40.27;19.17;;;;;;;-0.64;68.22;98731.75;4962995;28;97251;-91
2022/01/09 04:26:42;;;;;;;36.07;17.57;;;;;;;-0.16;67.88;98818.72;4939853;28;96682;-91
2022/01/09 04:29:10;;;;;;;34.80;17.90;;;;;;;-0.61;68.21;98738.56;4939756;28;96844;-92
2022/01/09 04:31:35;;;;;;;35.47;19.67;;;;;;;-0.68;67.83;98715.47;4938960;28;101284;-91
2022/01/09 04:34:01;;;;;;;40.83;18.83;;;;;;;-0.66;68.34;98754.13;4946518;28;101456;-92
2022/01/09 04:36:27;;;;;;;34.53;17.90;;;;;;;-0.17;68.05;98822.19;4955845;28;96587;-92
2022/01/09 04:38:54;;;;;;;36.77;18.23;;;;;;;-0.73;68.18;98724.13;4939897;28;96860;-92
2022/01/09 04:41:20;;;;;;;33.77;16.83;;;;;;;-0.36;67.92;98788.91;4939383;28;101510;-92
2022/01/09 04:43:48;;;;;;;33.77;17.30;;;;;;;-0.47;67.52;98770.16;4959769;28;100943;-91
2022/01/09 04:46:20;;;;;;;35.13;18.20;;;;;;;-0.56;67.87;98759.97;4942895;28;97267;-92
2022/01/09 04:48:49;;;;;;;33.30;17.60;;;;;;;-0.58;68.27;98782.34;4944860;28;96621;-92
2022/01/09 04:51:15;;;;;;;29.97;15.37;;;;;;;-0.58;68.61;98784.91;4942503;28;101657;-92
2022/01/09 04:53:41;;;;;;;30.87;18.33;;;;;;;-0.57;68.17;98766.03;4942747;28;100149;-92
2022/01/09 04:56:09;;;;;;;30.70;18.00;;;;;;;-0.91;67.83;98713.19;4958748;28;96470;-92
2022/01/09 04:58:34;;;;;;;32.73;17.67;;;;;;;-0.90;68.07;98726.97;4942402;28;96867;-92
2022/01/09 05:01:00;;;;;;;36.23;17.33;;;;;;;-0.48;68.26;98784.78;4955586;28;98260;-92
2022/01/09 05:03:26;;;;;;;31.23;15.93;;;;;;;-0.48;67.66;98769.31;4939255;28;98260;-92
2022/01/09 05:05:51;;;;;;;33.23;16.70;;;;;;;-0.75;67.68;98718.16;4923267;28;96641;-92
2022/01/09 05:08:17;;;;;;;27.47;16.07;;;;;;;-0.32;67.20;98767.38;4939204;28;96742;-92
2022/01/09 05:10:47;;;;;;;26.43;15.60;;;;;;;-0.44;67.19;98761.53;4939010;28;101099;-92
2022/01/09 05:13:16;;;;;;;34.90;16.90;;;;;;;-0.34;67.14;98760.53;4939201;28;100103;-92
2022/01/09 05:15:42;;;;;;;26.13;14.50;;;;;;;-0.61;67.28;98713.66;4939461;28;97107;-93
2022/01/09 05:18:14;;;;;;;34.17;16.87;;;;;;;-0.69;66.78;98706.03;4954165;28;96859;-92
2022/01/09 05:20:42;;;;;;;29.17;15.37;;;;;;;-0.28;66.83;98760.44;4955375;28;101404;-92
2022/01/09 05:23:08;;;;;;;32.50;16.37;;;;;;;-0.26;66.81;98753.56;4938560;28;99814;-93
2022/01/09 05:25:34;;;;;;;28.20;15.37;;;;;;;-0.20;66.41;98756.03;4956950;28;96580;-92
2022/01/09 05:28:02;;;;;;;31.07;15.87;;;;;;;-0.53;66.37;98696.34;4942700;28;96565;-92
2022/01/09 05:30:28;;;;;;;30.17;15.70;;;;;;;-0.62;66.05;98680.16;4928666;28;101496;-92
2022/01/09 05:32:53;;;;;;;28.93;16.27;;;;;;;-0.22;66.38;98751.78;4958549;28;101356;-92
2022/01/09 05:35:19;;;;;;;31.37;15.77;;;;;;;-0.02;65.96;98785.84;4941910;28;96690;-92
2022/01/09 05:37:47;;;;;;;31.73;14.93;;;;;;;-0.16;65.62;98754.25;4959670;28;96736;-92
2022/01/09 05:40:13;;;;;;;25.60;14.23;;;;;;;-0.53;65.92;98701.50;4941744;28;99923;-93
2022/01/09 05:42:41;;;;;;;25.20;13.77;;;;;;;-0.08;65.49;98761.00;4941650;28;100960;-92
2022/01/09 05:45:08;;;;;;;32.30;14.17;;;;;;;-0.33;65.49;98713.25;4941486;28;96701;-93
2022/01/09 05:47:34;;;;;;;24.23;12.10;;;;;;;-0.46;65.74;98717.75;4941323;28;96924;-92
2022/01/09 05:49:59;;;;;;;27.67;14.00;;;;;;;0.05;65.29;98789.16;4958573;28;100995;-92
2022/01/09 05:52:25;;;;;;;26.20;13.53;;;;;;;-0.16;65.31;98765.41;4941314;28;100581;-92
2022/01/09 05:54:56;;;;;;;26.67;14.20;;;;;;;-0.57;65.23;98689.53;4958939;28;96777;-92
2022/01/09 05:57:22;;;;;;;27.50;13.83;;;;;;;-0.63;65.66;98707.69;4941129;28;96932;-92
2022/01/09 05:59:48;;;;;;;23.87;13.10;;;;;;;-0.28;65.85;98758.72;4941240;28;100818;-92
2022/01/09 06:02:16;;;;;;;27.43;14.37;;;;;;;-0.46;65.83;98754.69;4932031;28;100841;-93
2022/01/09 06:04:43;;;;;;;28.47;14.30;;;;;;;-0.94;66.11;98699.50;4944857;28;96502;-91
2022/01/09 06:07:11;;;;;;;25.20;14.37;;;;;;;-0.56;66.53;98752.25;4946802;28;96797;-92
2022/01/09 06:09:36;;;;;;;27.10;14.00;;;;;;;-1.09;66.70;98672.25;4925191;28;100049;-91
2022/01/09 06:12:02;;;;;;;27.33;14.07;;;;;;;-0.95;66.50;98695.25;4938511;28;100989;-92
2022/01/09 06:14:28;;;;;;;28.50;14.17;;;;;;;-0.53;66.63;98741.91;4938349;28;96790;-93
2022/01/09 06:16:54;;;;;;;28.63;15.00;;;;;;;-0.50;67.00;98744.44;4922631;28;96648;-92
2022/01/09 06:19:19;;;;;;;26.17;14.73;;;;;;;-0.62;66.11;98724.00;4938089;28;101475;-92
2022/01/09 06:21:48;;;;;;;25.97;14.37;;;;;;;-0.19;66.07;98774.94;4923330;28;100629;-92
2022/01/09 06:24:14;;;;;;;27.67;13.97;;;;;;;-0.15;66.10;98771.41;4938113;28;96604;-92
2022/01/09 06:26:39;;;;;;;29.17;14.07;;;;;;;-0.52;65.95;98718.69;4938830;28;96732;-92
2022/01/09 06:29:05;;;;;;;30.80;15.90;;;;;;;-0.66;65.83;98705.16;4954903;28;97381;-91
2022/01/09 06:31:31;;;;;;;32.27;15.37;;;;;;;-0.79;65.75;98690.72;4937984;28;100292;-92
2022/01/09 06:33:59;;;;;;;27.93;14.83;;;;;;;-0.44;65.71;98740.91;4952123;28;96815;-92
2022/01/09 06:36:24;;;;;;;31.47;15.80;;;;;;;-0.93;65.94;98675.47;4956983;28;97287;-92
2022/01/09 06:38:50;;;;;;;29.27;15.67;;;;;;;-0.98;66.78;98682.41;4965471;28;101297;-92
2022/01/09 06:41:16;;;;;;;33.93;17.23;;;;;;;-0.66;66.72;98745.53;4957742;28;100236;-93
2022/01/09 06:43:44;;;;;;;31.17;17.20;;;;;;;-1.02;66.95;98699.63;4954529;28;96614;-92
2022/01/09 06:46:10;;;;;;;29.77;16.53;;;;;;;-0.57;66.80;98792.66;4957170;28;97039;-92
2022/01/09 06:48:36;;;;;;;32.73;17.60;;;;;;;-0.52;66.66;98790.88;4973917;28;98717;-89
2022/01/09 06:51:01;;;;;;;33.93;17.70;;;;;;;-0.85;67.13;98732.88;4957974;28;101258;-92
2022/01/09 06:53:27;;;;;;;29.93;16.47;;;;;;;-1.18;66.67;98691.25;4957738;28;96674;-91
2022/01/09 06:55:53;;;;;;;38.17;17.67;;;;;;;-0.92;67.26;98726.13;4954893;28;97111;-91
2022/01/09 06:58:21;;;;;;;30.77;16.77;;;;;;;-0.71;66.86;98745.59;4937158;28;98380;-92
2022/01/09 07:00:49;;;;;;;36.40;18.30;;;;;;;-1.14;66.73;98686.88;4937913;28;100892;-91
2022/01/09 07:03:15;;;;;;;40.27;19.23;;;;;;;-0.92;67.15;98719.22;4937579;28;96641;-92
2022/01/09 07:05:41;;;;;;;39.63;20.07;;;;;;;-0.62;67.02;98767.81;4921753;28;96547;-91
2022/01/09 07:08:07;;;;;;;37.80;18.23;;;;;;;-0.84;67.36;98736.31;4937450;28;101070;-92
2022/01/09 07:10:32;;;;;;;40.20;17.93;;;;;;;-0.76;67.89;98775.72;4931109;28;100905;-92
2022/01/09 07:12:58;;;;;;;35.47;19.30;;;;;;;-1.23;67.53;98679.28;4973246;28;96711;-92
2022/01/09 07:15:26;;;;;;;35.27;18.20;;;;;;;-1.26;67.50;98658.72;4973897;28;96853;-92
2022/01/09 07:17:51;;;;;;;41.67;19.63;;;;;;;-0.91;67.47;98723.50;4957096;28;100439;-90
2022/01/09 07:20:17;;;;;;;36.70;18.33;;;;;;;-0.83;67.57;98730.28;4975338;28;98376;-91
2022/01/09 07:22:43;;;;;;;39.77;19.07;;;;;;;-0.65;67.60;98773.00;4944603;28;96902;-92
2022/01/09 07:25:11;;;;;;;35.77;18.40;;;;;;;-0.63;67.52;98766.97;4960472;28;96772;-92
2022/01/09 07:27:39;;;;;;;37.07;18.60;;;;;;;-0.56;67.12;98771.13;4959047;28;101622;-92
2022/01/09 07:30:08;;;;;;;39.03;18.83;;;;;;;-1.02;67.71;98693.59;4942734;28;101188;-92
2022/01/09 07:32:36;;;;;;;36.03;19.10;;;;;;;-1.03;67.43;98697.06;4959402;28;96736;-92
2022/01/09 07:35:05;;;;;;;33.07;17.53;;;;;;;-1.18;67.15;98655.19;4973541;28;96842;-92
2022/01/09 07:37:31;;;;;;;38.07;19.23;;;;;;;-1.10;67.05;98654.25;4959205;28;101675;-93
2022/01/09 07:39:58;;;;;;;38.00;18.97;;;;;;;-1.08;67.12;98673.09;4941402;28;101015;-92
2022/01/09 07:42:24;;;;;;;32.53;17.93;;;;;;;-0.73;67.23;98719.84;4955297;28;96904;-93
2022/01/09 07:44:52;;;;;;;35.50;18.87;;;;;;;-0.71;66.94;98727.53;4952647;28;96884;-93
2022/01/09 07:47:20;;;;;;;35.10;18.63;;;;;;;-0.68;67.13;98730.94;4958840;28;101148;-90
2022/01/09 07:49:46;;;;;;;35.50;18.47;;;;;;;-0.66;67.01;98730.91;4959895;28;100628;-91
2022/01/09 07:52:14;;;;;;;35.37;19.50;;;;;;;-0.82;66.43;98677.88;4960303;28;96793;-93
2022/01/09 07:54:42;;;;;;;37.40;19.17;;;;;;;-0.28;66.37;98753.56;4959959;28;96782;-92
2022/01/09 07:57:10;;;;;;;37.00;17.90;;;;;;;-0.58;66.28;98700.72;4959609;28;101899;-92
2022/01/09 07:59:36;;;;;;;35.40;20.17;;;;;;;-0.34;65.61;98702.09;4955695;28;101648;-91
2022/01/09 08:02:02;;;;;;;35.03;18.73;;;;;;;-0.32;65.57;98687.44;4972758;28;96553;-91
2022/01/09 08:04:27;;;;;;;34.60;18.17;;;;;;;0.06;65.13;98716.03;4959489;28;97136;-91
2022/01/09 08:06:53;;;;;;;33.27;18.10;;;;;;;0.19;64.02;98710.63;4943118;28;100963;-91
2022/01/09 08:09:19;;;;;;;37.27;19.47;;;;;;;0.76;63.69;98752.66;4943059;28;100018;-90
2022/01/09 08:11:44;;;;;;;34.90;18.47;;;;;;;0.80;63.26;98721.53;4958732;28;97019;-91
2022/01/09 08:14:13;;;;;;;38.67;19.57;;;;;;;0.57;62.25;98674.66;4959721;28;96826;-86
2022/01/09 08:16:48;;;;;;;36.57;19.83;;;;;;;0.93;62.39;98688.53;4958090;28;101424;-91
2022/01/09 08:19:16;;;;;;;37.77;18.90;;;;;;;1.19;61.36;98726.75;4955256;28;98272;-93
2022/01/09 08:21:44;;;;;;;38.23;19.60;;;;;;;1.17;61.29;98725.97;4956075;28;96640;-93
2022/01/09 08:24:10;;;;;;;35.77;19.57;;;;;;;1.04;61.11;98663.34;4956489;28;96741;-92
2022/01/09 08:26:36;;;;;;;32.07;18.40;;;;;;;1.63;60.55;98729.25;4939168;28;99879;-92
2022/01/09 08:29:04;;;;;;;34.20;18.50;;;;;;;1.71;59.94;98694.56;4950004;28;101029;-92
2022/01/09 08:31:29;;;;;;;34.80;18.80;;;;;;;2.16;58.99;98716.75;4975230;28;96642;-94
2022/01/09 08:33:55;;;;;;;34.93;18.83;;;;;;;2.39;58.46;98726.53;4941412;28;96861;-92
2022/01/09 08:36:21;;;;;;;34.07;18.67;;;;;;;2.55;58.56;98714.84;4958333;28;101282;-92
2022/01/09 08:38:49;;;;;;;30.40;17.77;;;;;;;2.76;57.75;98703.03;4959214;28;101231;-92
2022/01/09 08:41:17;;;;;;;34.47;18.10;;;;;;;2.91;57.37;98727.72;4943516;28;96744;-92
2022/01/09 08:43:43;;;;;;;35.60;17.87;;;;;;;2.65;56.90;98658.47;4956904;28;97087;-91
2022/01/09 08:46:11;;;;;;;32.27;17.53;;;;;;;3.35;56.73;98757.53;4958216;28;101797;-91
2022/01/09 08:48:39;;;;;;;32.57;18.90;;;;;;;3.44;56.62;98750.38;4957592;28;101440;-91
2022/01/09 08:51:06;;;;;;;33.53;19.10;;;;;;;3.44;55.99;98701.94;4960815;28;97531;-92
2022/01/09 08:53:32;;;;;;;30.23;18.80;;;;;;;3.59;55.91;98736.94;4988475;28;97213;-91
2022/01/09 08:56:00;;;;;;;31.13;18.37;;;;;;;3.67;55.55;98702.97;4965341;28;98451;-91
2022/01/09 08:58:26;;;;;;;31.20;18.70;;;;;;;4.29;55.00;98755.44;4940289;28;101405;-91
2022/01/09 09:00:51;;;;;;;32.13;17.93;;;;;;;4.45;54.65;98757.50;5003946;28;96594;-90
2022/01/09 09:03:17;;;;;;;32.33;18.47;;;;;;;3.96;54.57;98663.94;5007651;28;96897;-91
2022/01/09 09:05:53;;;;;;;34.20;19.83;;;;;;;4.36;54.22;98703.25;4958072;28;102035;-91
2022/01/09 09:08:28;;;;;;;33.07;19.57;;;;;;;4.88;53.74;98751.66;4967760;28;97410;-92
2022/01/09 09:10:56;;;;;;;34.27;20.37;;;;;;;4.92;53.42;98742.88;4987232;28;96796;-92
2022/01/09 09:13:25;;;;;;;29.57;18.27;;;;;;;4.39;53.58;98653.78;4958010;28;96866;-91
2022/01/09 09:15:53;;;;;;;30.00;17.93;;;;;;;4.68;53.18;98691.72;4956067;28;101606;-92
2022/01/09 09:18:22;;;;;;;27.67;18.40;;;;;;;4.76;52.96;98690.56;4990132;28;101068;-92
2022/01/09 09:20:47;;;;;;;27.37;17.67;;;;;;;5.08;52.93;98739.69;4958961;28;96603;-93
2022/01/09 09:23:13;;;;;;;30.47;18.27;;;;;;;4.67;52.88;98658.84;4974392;28;96709;-94
2022/01/09 09:25:42;;;;;;;31.83;18.60;;;;;;;4.99;52.53;98639.47;4922823;28;101017;-94
2022/01/09 09:28:07;;;;;;;29.10;17.43;;;;;;;5.41;52.07;98707.22;4938558;28;100573;-96
2022/01/09 09:30:33;;;;;;;28.67;17.70;;;;;;;5.44;51.92;98680.22;4922210;28;96678;-90
2022/01/09 09:32:59;;;;;;;26.87;16.63;;;;;;;5.57;51.95;98722.25;4938892;28;96840;-94
2022/01/09 09:35:27;;;;;;;24.17;15.67;;;;;;;5.63;51.58;98717.63;4938227;28;100794;-95
2022/01/09 09:37:53;;;;;;;22.93;14.53;;;;;;;5.67;51.93;98723.56;4938829;28;98309;-95
2022/01/09 09:40:19;;;;;;;25.90;17.03;;;;;;;5.70;51.52;98717.38;4938024;28;96770;-94
2022/01/09 09:42:44;;;;;;;27.00;16.30;;;;;;;5.72;51.34;98721.63;4922755;28;96586;-94
2022/01/09 09:45:13;;;;;;;21.53;15.03;;;;;;;5.55;51.49;98664.16;4928784;28;100133;-95
2022/01/09 09:47:39;;;;;;;23.30;15.43;;;;;;;5.39;51.16;98632.72;4956655;28;98329;-93
2022/01/09 09:50:07;;;;;;;23.13;15.10;;;;;;;5.72;51.59;98681.72;4956946;28;96726;-94
2022/01/09 09:52:35;;;;;;;23.33;14.37;;;;;;;5.78;51.17;98674.50;4989465;28;96733;-94
2022/01/09 09:55:01;;;;;;;23.83;15.10;;;;;;;5.84;50.85;98676.00;4950554;28;101014;-95
2022/01/09 09:57:27;;;;;;;21.00;14.10;;;;;;;5.73;51.04;98686.88;4966866;28;101105;-95
2022/01/09 10:00:05;;;;;;;22.93;15.10;;;;;;;5.33;51.16;98630.38;4956144;28;97017;-94
2022/01/09 10:02:50;;;;;;;20.07;14.07;;;;;;;5.42;51.30;98630.00;4969855;28;97012;-95
2022/01/09 10:05:26;;;;;;;24.33;14.45;;;;;;;5.48;51.58;98615.88;4956812;28;100147;-95
2022/01/09 10:07:53;;;;;;;24.00;14.50;;;;;;;5.10;51.79;98611.28;4974112;28;98414;-94
2022/01/09 10:10:21;;;;;;;26.70;15.20;;;;;;;4.76;52.53;98606.53;4972514;28;96792;-93
2022/01/09 10:12:48;;;;;;;25.70;15.37;;;;;;;4.73;53.20;98636.06;4957336;28;96928;-94
2022/01/09 10:15:21;;;;;;;25.23;15.70;;;;;;;5.08;53.98;98704.13;4952640;28;99642;-95
2022/01/09 10:17:48;;;;;;;21.80;14.13;;;;;;;5.11;53.44;98690.16;4957103;28;101217;-95
2022/01/09 10:20:15;;;;;;;23.07;14.20;;;;;;;4.79;53.40;98624.59;4940089;28;96991;-95
2022/01/09 10:22:48;;;;;;;25.53;14.83;;;;;;;5.35;53.10;98698.78;4956902;28;96925;-95
2022/01/09 10:25:30;;;;;;;26.53;14.97;;;;;;;5.28;53.37;98669.56;4973220;28;97163;-95
2022/01/09 10:27:57;;;;;;;;;;;;;;;5.27;53.05;98683.47;4946579;28;101723;-95
2022/01/09 10:30:26;;;;;;;24.73;14.27;;;;;;;4.95;53.36;98607.53;4965307;28;98089;-95
2022/01/09 10:32:58;;;;;;;22.33;13.67;;;;;;;5.23;53.43;98702.69;4953967;28;96912;-96
2022/01/09 10:35:27;;;;;;;25.90;15.80;;;;;;;4.97;53.92;98670.75;4957315;28;101499;-95
2022/01/09 10:38:07;;;;;;;25.27;14.27;;;;;;;5.16;54.15;98680.44;4970138;28;101071;-95
2022/01/09 10:40:36;;;;;;;28.13;14.80;;;;;;;5.18;54.59;98689.03;4968635;28;97881;-95
2022/01/09 10:43:08;;;;;;;25.80;15.10;;;;;;;4.86;54.82;98661.63;4941019;28;97297;-94
2022/01/09 10:45:36;;;;;;;;;;;;;;;4.80;55.15;98683.50;4958060;28;101988;-95
2022/01/09 10:48:11;;;;;;;22.17;13.20;;;;;;;4.31;56.23;98665.31;4956683;28;99227;-95
2022/01/09 10:50:42;;;;;;;19.57;12.40;;;;;;;4.00;56.61;98652.53;4956281;28;96685;-95
2022/01/09 10:53:31;;;;;;;24.63;13.33;;;;;;;3.88;57.33;98658.13;4953261;28;97220;-94
2022/01/09 10:56:11;;;;;;;23.63;12.37;;;;;;;3.85;57.61;98658.25;4967336;28;97451;-91
2022/01/09 10:58:49;;;;;;;20.23;12.23;;;;;;;3.95;57.66;98662.22;4964144;28;101201;-93
2022/01/09 11:01:26;;;;;;;20.60;12.03;;;;;;;3.82;57.89;98655.75;4944357;28;96994;-93
2022/01/09 11:04:10;;;;;;;21.67;13.00;;;;;;;3.85;57.89;98679.00;4982544;28;96682;-93
2022/01/09 11:06:40;;;;;;;20.73;11.83;;;;;;;3.30;57.86;98592.56;4951960;28;98028;-94
2022/01/09 11:09:06;;;;;;;20.80;11.83;;;;;;;3.26;58.24;98586.63;4974414;28;101436;-92
2022/01/09 11:11:40;;;;;;;23.37;12.83;;;;;;;3.75;58.46;98675.88;4980727;28;96481;-94
2022/01/09 11:14:11;;;;;;;20.87;12.17;;;;;;;3.83;58.76;98683.38;4953403;28;96678;-93
2022/01/09 11:16:41;;;;;;;20.23;12.03;;;;;;;3.57;58.52;98638.38;4942752;28;101972;-93
2022/01/09 11:19:15;;;;;;;17.70;11.40;;;;;;;3.19;58.68;98600.69;4960178;28;101836;-93
2022/01/09 11:21:46;;;;;;;19.67;11.83;;;;;;;3.33;58.95;98642.59;4954863;28;97210;-93